Time;durP1;ratioP1;P1;durP2;ratioP2;P2;SDS_P1;SDS_P2;PMS_P1;PMS_P2;Temp;Humidity;BMP_temperature;BMP_pressure;BME280_temperature;BME280_humidity;BME280_pressure;Samples;Min_cycle;Max_cycle;Signal;HPM_P1;HPM_P2
2021/10/03 00:02:31;;;;;;;8.35;0.63;;;;;;;9.71;100.00;97125.22;6339720;22;20025;-48
2021/10/03 00:05:36;;;;;;;11.27;0.82;;;;;;;9.72;100.00;97127.47;6339115;22;20572;-48
2021/10/03 00:08:40;;;;;;;0.55;0.50;;;;;;;9.67;100.00;97128.34;6338764;22;20064;-48
2021/10/03 00:11:45;;;;;;;0.30;0.30;;;;;;;9.67;100.00;97142.22;6319802;22;20026;-48
2021/10/03 00:14:53;;;;;;;5.65;0.80;;;;;;;9.60;100.00;97139.34;6339192;22;20453;-48
2021/10/03 00:18:04;;;;;;;1.05;0.95;;;;;;;9.52;100.00;97136.47;6339233;22;20044;-48
2021/10/03 00:21:10;;;;;;;0.10;0.10;;;;;;;9.48;100.00;97135.28;6321058;22;20092;-48
2021/10/03 00:24:13;;;;;;;0.10;0.10;;;;;;;9.40;100.00;97145.53;6339055;22;20026;-48
2021/10/03 00:27:16;;;;;;;0.30;0.30;;;;;;;9.35;100.00;97140.81;6339156;22;20344;-48
2021/10/03 00:30:21;;;;;;;0.63;0.35;;;;;;;9.27;100.00;97148.31;6339404;22;20022;-48
2021/10/03 00:33:24;;;;;;;1.75;0.70;;;;;;;9.19;100.00;97148.19;6339390;22;20029;-48
2021/10/03 00:36:28;;;;;;;5.32;1.00;;;;;;;9.09;100.00;97150.63;6337902;22;20397;-48
2021/10/03 00:39:31;;;;;;;0.10;0.10;;;;;;;9.09;100.00;97174.88;6339162;22;20076;-48
2021/10/03 00:42:36;;;;;;;0.85;0.25;;;;;;;8.98;100.00;97167.47;6338963;22;20343;-49
2021/10/03 00:45:40;;;;;;;0.35;0.35;;;;;;;8.94;100.00;97167.00;6338704;22;20507;-48
2021/10/03 00:48:44;;;;;;;0.30;0.30;;;;;;;8.90;100.00;97165.84;6338478;22;20025;-48
2021/10/03 00:51:47;;;;;;;0.32;0.20;;;;;;;8.89;100.00;97178.22;6338777;22;20351;-48
2021/10/03 00:54:50;;;;;;;0.40;0.40;;;;;;;8.91;100.00;97192.31;6339057;22;20026;-48
2021/10/03 00:57:56;;;;;;;0.52;0.52;;;;;;;8.86;100.00;97193.13;6338789;22;20022;-48
2021/10/03 01:01:01;;;;;;;0.13;0.13;;;;;;;8.80;100.00;97187.69;6337588;22;20029;-48
2021/10/03 01:04:04;;;;;;;1.05;0.75;;;;;;;8.74;100.00;97183.50;6338982;22;20057;-48
2021/10/03 01:07:07;;;;;;;0.30;0.30;;;;;;;8.67;100.00;97207.06;6338680;22;20030;-48
2021/10/03 01:10:14;;;;;;;1.35;0.47;;;;;;;8.63;100.00;97200.31;6319777;22;20034;-48
2021/10/03 01:13:18;;;;;;;1.52;0.32;;;;;;;8.55;100.00;97202.97;6338953;22;20025;-48
2021/10/03 01:16:20;;;;;;;0.50;0.50;;;;;;;8.49;100.00;97210.59;6338644;22;20064;-48
2021/10/03 01:19:24;;;;;;;3.85;0.95;;;;;;;8.40;100.00;97219.31;6338646;22;20030;-48
2021/10/03 01:22:27;;;;;;;1.02;0.60;;;;;;;8.32;100.00;97219.13;6338868;22;20063;-48
2021/10/03 01:25:33;;;;;;;0.40;0.30;;;;;;;8.23;100.00;97222.25;6338650;22;20020;-48
2021/10/03 01:28:36;;;;;;;0.30;0.30;;;;;;;8.11;100.00;97225.69;6338602;22;20068;-48
2021/10/03 01:31:39;;;;;;;0.10;0.10;;;;;;;8.02;100.00;97223.28;6319767;22;20072;-48
2021/10/03 01:34:42;;;;;;;0.20;0.20;;;;;;;7.97;100.00;97222.06;6338632;22;20026;-48
2021/10/03 01:37:46;;;;;;;1.02;0.63;;;;;;;7.92;100.00;97222.13;6318426;22;20422;-48
2021/10/03 01:40:50;;;;;;;0.63;0.20;;;;;;;7.86;100.00;97218.69;6338334;22;20022;-48
2021/10/03 01:43:53;;;;;;;0.25;0.25;;;;;;;7.82;100.00;97215.47;6338790;22;20075;-47
2021/10/03 01:46:56;;;;;;;0.22;0.22;;;;;;;7.78;100.00;97212.22;6319386;22;20453;-48
2021/10/03 01:49:59;;;;;;;0.30;0.30;;;;;;;7.75;100.00;97224.34;6319408;22;20086;-48
2021/10/03 01:53:02;;;;;;;1.65;0.40;;;;;;;7.73;100.00;97224.13;6338655;22;20025;-48
2021/10/03 01:56:07;;;;;;;0.20;0.15;;;;;;;7.74;100.00;97217.28;6338293;22;20080;-48
2021/10/03 01:59:10;;;;;;;0.30;0.30;;;;;;;7.75;100.00;97216.03;6337734;22;20095;-48
2021/10/03 02:02:12;;;;;;;0.28;0.28;;;;;;;7.74;100.00;97220.06;6337815;22;20022;-48
2021/10/03 02:05:15;;;;;;;0.15;0.15;;;;;;;7.71;100.00;97210.03;6338315;22;20025;-48
2021/10/03 02:08:18;;;;;;;0.10;0.10;;;;;;;7.69;100.00;97213.31;6338857;22;20071;-47
2021/10/03 02:11:27;;;;;;;0.28;0.28;;;;;;;7.64;100.00;97212.09;6319766;22;20023;-48
2021/10/03 02:14:31;;;;;;;0.43;0.43;;;;;;;7.60;100.00;97206.09;6338186;22;20148;-47
2021/10/03 02:17:35;;;;;;;0.20;0.20;;;;;;;7.54;100.00;97202.66;6338033;22;20131;-48
2021/10/03 02:20:39;;;;;;;0.20;0.20;;;;;;;7.41;100.00;97199.75;6338505;22;20053;-47
2021/10/03 02:23:44;;;;;;;0.30;0.30;;;;;;;7.32;100.00;97202.88;6338480;22;20022;-48
2021/10/03 02:26:47;;;;;;;0.25;0.25;;;;;;;7.25;100.00;97214.53;6338237;22;20098;-47
2021/10/03 02:29:51;;;;;;;0.20;0.20;;;;;;;7.17;100.00;97218.38;6338293;22;20049;-48
2021/10/03 02:32:54;;;;;;;0.82;0.30;;;;;;;7.15;100.00;97213.34;6338507;22;20090;-48
2021/10/03 02:35:57;;;;;;;1.27;0.30;;;;;;;7.16;100.00;97230.72;6338260;22;20026;-48
2021/10/03 02:39:00;;;;;;;0.70;0.68;;;;;;;7.11;100.00;97221.19;6338038;22;20053;-48
2021/10/03 02:42:03;;;;;;;0.30;0.30;;;;;;;7.06;100.00;97212.94;6338466;22;20029;-48
2021/10/03 02:45:08;;;;;;;0.47;0.47;;;;;;;7.00;100.00;97212.97;6338460;22;20332;-48
2021/10/03 02:48:12;;;;;;;0.20;0.20;;;;;;;6.93;100.00;97216.28;6338255;22;20017;-48
2021/10/03 02:51:17;;;;;;;0.30;0.30;;;;;;;6.85;100.00;97215.34;6339197;22;20053;-48
2021/10/03 02:54:20;;;;;;;0.30;0.30;;;;;;;6.82;100.00;97217.13;6340426;22;20025;-48
2021/10/03 02:57:23;;;;;;;0.30;0.30;;;;;;;6.50;100.00;97226.41;6340227;22;20111;-48
2021/10/03 03:00:26;;;;;;;0.30;0.30;;;;;;;6.67;100.00;97229.84;6340125;22;20025;-48
2021/10/03 03:03:30;;;;;;;0.45;0.45;;;;;;;6.68;100.00;97223.03;6339667;22;20034;-48
2021/10/03 03:06:33;;;;;;;0.35;0.32;;;;;;;6.74;100.00;97220.97;6339563;22;20490;-48
2021/10/03 03:09:36;;;;;;;0.45;0.45;;;;;;;6.74;100.00;97215.44;6339615;22;20053;-48
2021/10/03 03:12:38;;;;;;;0.40;0.40;;;;;;;6.73;100.00;97219.47;6339881;22;20033;-48
2021/10/03 03:15:41;;;;;;;1.83;0.65;;;;;;;6.71;100.00;97227.53;6339411;22;20026;-48
2021/10/03 03:18:44;;;;;;;5.57;0.50;;;;;;;6.65;100.00;97229.56;6339876;22;20042;-48
2021/10/03 03:21:47;;;;;;;0.20;0.20;;;;;;;6.57;100.00;97223.84;6339774;22;20025;-48
2021/10/03 03:24:49;;;;;;;0.50;0.50;;;;;;;6.51;100.00;97220.38;6340097;22;20029;-48
2021/10/03 03:27:53;;;;;;;1.05;1.00;;;;;;;6.50;100.00;97240.22;6339326;22;20098;-49
2021/10/03 03:30:56;;;;;;;0.20;0.20;;;;;;;6.48;100.00;97248.28;6339877;22;20026;-48
2021/10/03 03:33:59;;;;;;;0.13;0.13;;;;;;;6.42;100.00;97237.25;6339864;22;20030;-48
2021/10/03 03:37:02;;;;;;;0.30;0.30;;;;;;;6.34;100.00;97235.53;6339610;22;20025;-48
2021/10/03 03:40:08;;;;;;;0.22;0.22;;;;;;;6.32;100.00;97246.38;6339106;22;20098;-48
2021/10/03 03:43:11;;;;;;;0.57;0.55;;;;;;;6.25;100.00;97255.94;6339430;22;20025;-48
2021/10/03 03:46:14;;;;;;;0.47;0.47;;;;;;;6.24;100.00;97251.66;6339184;22;20580;-49
2021/10/03 03:49:17;;;;;;;0.50;0.50;;;;;;;6.22;100.00;97256.94;6339373;22;20441;-49
2021/10/03 03:52:20;;;;;;;0.32;0.32;;;;;;;6.18;100.00;97247.41;6339199;22;20544;-49
2021/10/03 03:55:24;;;;;;;0.20;0.20;;;;;;;6.14;100.00;97236.66;6339676;22;20025;-48
2021/10/03 03:58:27;;;;;;;0.20;0.20;;;;;;;6.16;100.00;97259.00;6339290;22;20504;-49
2021/10/03 04:01:30;;;;;;;0.25;0.25;;;;;;;6.15;100.00;97265.03;6339414;22;20065;-49
2021/10/03 04:04:33;;;;;;;1.10;0.63;;;;;;;6.13;100.00;97268.28;6339048;22;20469;-49
2021/10/03 04:07:36;;;;;;;0.75;0.60;;;;;;;6.13;100.00;97281.38;6339742;22;20463;-48
2021/10/03 04:10:39;;;;;;;0.20;0.20;;;;;;;6.15;100.00;97251.22;6339306;22;20106;-48
2021/10/03 04:13:42;;;;;;;3.25;0.47;;;;;;;6.23;100.00;97250.19;6339521;22;20068;-49
2021/10/03 04:16:45;;;;;;;0.15;0.13;;;;;;;6.13;100.00;97248.94;6338531;22;20350;-48
2021/10/03 04:19:47;;;;;;;0.55;0.55;;;;;;;5.96;100.00;97259.31;6339295;22;20029;-48
2021/10/03 04:22:51;;;;;;;0.30;0.30;;;;;;;5.95;100.00;97257.81;6339014;22;20111;-48
2021/10/03 04:25:54;;;;;;;0.20;0.20;;;;;;;5.88;100.00;97259.09;6339406;22;20058;-48
2021/10/03 04:28:56;;;;;;;0.28;0.28;;;;;;;5.78;100.00;97255.06;6338889;22;20017;-49
2021/10/03 04:31:59;;;;;;;0.30;0.30;;;;;;;5.85;100.00;97264.88;6339337;22;20372;-48
2021/10/03 04:35:02;;;;;;;0.15;0.15;;;;;;;5.88;100.00;97264.63;6339261;22;20324;-49
2021/10/03 04:38:05;;;;;;;0.50;0.50;;;;;;;5.82;100.00;97261.09;6339228;22;20761;-49
2021/10/03 04:41:08;;;;;;;0.30;0.30;;;;;;;5.81;100.00;97264.34;6338791;22;20148;-49
2021/10/03 04:44:11;;;;;;;0.40;0.40;;;;;;;5.83;100.00;97268.09;6339327;22;20495;-49
2021/10/03 04:47:14;;;;;;;1.52;0.25;;;;;;;5.83;100.00;97268.09;6338884;22;20466;-49
2021/10/03 04:50:17;;;;;;;0.43;0.25;;;;;;;5.81;100.00;97265.09;6339237;22;20025;-49
2021/10/03 04:53:20;;;;;;;0.20;0.20;;;;;;;5.83;100.00;97272.88;6338744;22;20072;-49
2021/10/03 04:56:23;;;;;;;0.40;0.40;;;;;;;5.92;100.00;97269.88;6339092;22;20044;-48
2021/10/03 04:59:26;;;;;;;0.63;0.63;;;;;;;6.00;100.00;97279.88;6339027;22;20470;-49
2021/10/03 05:02:28;;;;;;;0.20;0.20;;;;;;;6.08;100.00;97283.66;6339017;22;20057;-49
2021/10/03 05:05:31;;;;;;;0.20;0.20;;;;;;;6.10;100.00;97286.66;6338467;22;20466;-49
2021/10/03 05:08:35;;;;;;;0.10;0.10;;;;;;;6.19;100.00;97287.63;6339187;22;20069;-49
2021/10/03 05:11:38;;;;;;;0.40;0.40;;;;;;;6.38;100.00;97286.53;6338755;22;20068;-49
2021/10/03 05:14:41;;;;;;;0.40;0.40;;;;;;;6.53;100.00;97280.69;6338395;22;20152;-49
2021/10/03 05:17:44;;;;;;;0.68;0.68;;;;;;;6.60;100.00;97289.19;6338378;22;20076;-48
2021/10/03 05:20:47;;;;;;;0.30;0.30;;;;;;;6.72;100.00;97279.56;6338950;22;20454;-49
2021/10/03 05:23:50;;;;;;;0.10;0.10;;;;;;;6.94;100.00;97286.97;6338785;22;20025;-49
2021/10/03 05:26:53;;;;;;;0.47;0.40;;;;;;;7.17;100.00;97293.09;6339001;22;20025;-49
2021/10/03 05:29:56;;;;;;;0.10;0.10;;;;;;;7.25;100.00;97286.50;6338300;22;20050;-49
2021/10/03 05:32:58;;;;;;;0.70;0.70;;;;;;;7.32;100.00;97293.50;6338808;22;20340;-49
2021/10/03 05:36:01;;;;;;;0.22;0.22;;;;;;;7.29;100.00;97286.97;6337918;22;20022;-49
2021/10/03 05:39:05;;;;;;;0.30;0.30;;;;;;;7.30;100.00;97294.00;6338509;22;20149;-49
2021/10/03 05:42:09;;;;;;;0.40;0.40;;;;;;;7.36;100.00;97286.38;6338231;22;20496;-49
2021/10/03 05:45:12;;;;;;;0.57;0.57;;;;;;;7.40;100.00;97275.81;6338589;22;20033;-49
2021/10/03 05:48:15;;;;;;;1.05;0.30;;;;;;;7.35;100.00;97279.34;6338870;22;20450;-49
2021/10/03 05:51:19;;;;;;;5.57;0.43;;;;;;;7.33;100.00;97287.44;6337698;22;20026;-49
2021/10/03 05:54:22;;;;;;;0.20;0.20;;;;;;;7.27;100.00;97267.34;6338158;22;20025;-49
2021/10/03 05:57:26;;;;;;;0.35;0.35;;;;;;;7.25;100.00;97263.59;6338539;22;20070;-49
2021/10/03 06:00:29;;;;;;;0.15;0.15;;;;;;;7.23;100.00;97266.13;6338569;22;20056;-49
2021/10/03 06:03:32;;;;;;;0.40;0.40;;;;;;;7.24;100.00;97273.16;6338591;22;20061;-49
2021/10/03 06:06:35;;;;;;;1.65;0.40;;;;;;;7.25;100.00;97269.88;6318367;22;20029;-50
2021/10/03 06:09:38;;;;;;;0.30;0.30;;;;;;;7.24;100.00;97268.38;6338108;22;20064;-50
2021/10/03 06:12:42;;;;;;;0.10;0.10;;;;;;;7.32;100.00;97274.13;6338958;22;20351;-49
2021/10/03 06:15:45;;;;;;;6.40;0.57;;;;;;;7.34;100.00;97279.88;6338534;22;20076;-49
2021/10/03 06:18:48;;;;;;;0.10;0.10;;;;;;;7.44;100.00;97287.34;6338001;22;20098;-49
2021/10/03 06:21:51;;;;;;;0.28;0.28;;;;;;;7.49;100.00;97307.94;6337594;22;20022;-49
2021/10/03 06:24:55;;;;;;;0.17;0.17;;;;;;;7.53;100.00;97294.56;6338360;22;20025;-49
2021/10/03 06:28:01;;;;;;;0.28;0.28;;;;;;;7.52;100.00;97310.41;6340088;22;20029;-49
2021/10/03 06:31:07;;;;;;;0.30;0.30;;;;;;;7.54;100.00;97312.66;6339838;22;20025;-49
2021/10/03 06:34:11;;;;;;;0.25;0.25;;;;;;;7.50;100.00;97307.41;6340641;22;20072;-48
2021/10/03 06:37:14;;;;;;;0.43;0.43;;;;;;;7.52;100.00;97302.13;6340004;22;20106;-49
2021/10/03 06:40:17;;;;;;;0.30;0.30;;;;;;;7.54;100.00;97307.88;6339777;22;20026;-49
2021/10/03 06:43:20;;;;;;;0.20;0.20;;;;;;;7.55;100.00;97309.41;6320678;22;20037;-49
2021/10/03 06:46:23;;;;;;;0.10;0.10;;;;;;;7.51;100.00;97303.38;6339987;22;20041;-49
2021/10/03 06:49:26;;;;;;;0.77;0.68;;;;;;;7.60;100.00;97299.53;6340173;22;20067;-49
2021/10/03 06:52:30;;;;;;;0.28;0.20;;;;;;;7.68;100.00;97305.25;6339650;22;20080;-49
2021/10/03 06:55:33;;;;;;;0.20;0.20;;;;;;;7.69;100.00;97304.00;6339746;22;20067;-49
2021/10/03 06:58:36;;;;;;;0.30;0.30;;;;;;;7.69;100.00;97306.75;6338809;22;20060;-48
2021/10/03 07:01:39;;;;;;;0.28;0.20;;;;;;;7.73;100.00;97313.53;6339594;22;20083;-49
2021/10/03 07:04:42;;;;;;;9.88;1.45;;;;;;;7.81;100.00;97308.16;6339931;22;20025;-49
2021/10/03 07:07:46;;;;;;;3.28;0.60;;;;;;;7.85;100.00;97308.59;6339543;22;20071;-49
2021/10/03 07:10:49;;;;;;;12.38;0.63;;;;;;;7.94;100.00;97327.66;6339578;22;20045;-49
2021/10/03 07:13:52;;;;;;;6.43;0.43;;;;;;;7.98;100.00;97322.59;6340030;22;20021;-49
2021/10/03 07:16:55;;;;;;;0.20;0.20;;;;;;;8.07;100.00;97325.00;6339593;22;20030;-49
2021/10/03 07:19:58;;;;;;;0.30;0.30;;;;;;;8.11;100.00;97331.00;6339595;22;20026;-49
2021/10/03 07:23:01;;;;;;;0.30;0.30;;;;;;;8.14;100.00;97338.31;6339854;22;20454;-49
2021/10/03 07:26:05;;;;;;;6.53;0.55;;;;;;;8.03;100.00;97350.25;6339570;22;20462;-49
2021/10/03 07:29:08;;;;;;;0.20;0.20;;;;;;;7.94;100.00;97367.22;6339780;22;20087;-49
2021/10/03 07:32:11;;;;;;;0.38;0.38;;;;;;;7.97;100.00;97366.16;6339183;22;20076;-49
2021/10/03 07:35:14;;;;;;;0.30;0.30;;;;;;;7.99;100.00;97371.22;6339520;22;20127;-49
2021/10/03 07:38:17;;;;;;;1.27;0.68;;;;;;;8.03;100.00;97363.34;6339303;22;20467;-48
2021/10/03 07:41:21;;;;;;;0.13;0.13;;;;;;;8.13;100.00;97350.66;6339193;22;20041;-49
2021/10/03 07:44:24;;;;;;;0.57;0.40;;;;;;;8.20;100.00;97358.41;6320359;22;20025;-48
2021/10/03 07:47:27;;;;;;;0.47;0.47;;;;;;;8.33;100.00;97359.28;6339061;22;20021;-48
2021/10/03 07:50:30;;;;;;;0.22;0.22;;;;;;;8.46;100.00;97360.66;6319984;22;20106;-48
2021/10/03 07:53:33;;;;;;;0.52;0.47;;;;;;;8.51;100.00;97368.91;6339404;22;20065;-48
2021/10/03 07:56:36;;;;;;;0.25;0.15;;;;;;;8.48;100.00;97371.97;6339396;22;20026;-48
2021/10/03 07:59:39;;;;;;;1.85;0.93;;;;;;;8.56;100.00;97370.88;6339306;22;20026;-48
2021/10/03 08:02:41;;;;;;;0.32;0.32;;;;;;;8.72;100.00;97367.16;6339566;22;20032;-48
2021/10/03 08:05:44;;;;;;;0.30;0.30;;;;;;;8.83;100.00;97372.56;6339249;22;20021;-48
2021/10/03 08:08:47;;;;;;;0.40;0.40;;;;;;;8.95;100.00;97382.25;6339471;22;20026;-48
2021/10/03 08:11:51;;;;;;;0.30;0.30;;;;;;;9.05;100.00;97380.59;6339408;22;20068;-48
2021/10/03 08:14:54;;;;;;;7.88;0.63;;;;;;;9.20;100.00;97382.16;6339584;22;20061;-48
2021/10/03 08:17:56;;;;;;;0.32;0.32;;;;;;;9.40;100.00;97367.75;6339316;22;20021;-49
2021/10/03 08:20:59;;;;;;;0.35;0.35;;;;;;;9.48;100.00;97385.28;6338882;22;20025;-48
2021/10/03 08:24:02;;;;;;;0.40;0.40;;;;;;;9.53;100.00;97387.97;6339334;22;20021;-49
2021/10/03 08:27:06;;;;;;;1.58;0.65;;;;;;;9.59;100.00;97391.44;6339014;22;20083;-49
2021/10/03 08:30:11;;;;;;;0.20;0.20;;;;;;;9.71;100.00;97392.75;6339445;22;20025;-49
2021/10/03 08:33:14;;;;;;;0.28;0.28;;;;;;;9.78;100.00;97392.16;6338867;22;20025;-49
2021/10/03 08:36:17;;;;;;;1.15;0.25;;;;;;;9.84;100.00;97389.25;6319750;22;20095;-48
2021/10/03 08:39:20;;;;;;;0.13;0.13;;;;;;;9.86;100.00;97387.47;6338730;22;20073;-49
2021/10/03 08:42:23;;;;;;;0.82;0.73;;;;;;;9.92;100.00;97387.34;6338897;22;20026;-49
2021/10/03 08:45:26;;;;;;;0.47;0.38;;;;;;;10.06;100.00;97386.13;6338420;22;20075;-49
2021/10/03 08:48:29;;;;;;;9.85;0.40;;;;;;;10.14;100.00;97384.22;6338721;22;20022;-49
2021/10/03 08:51:32;;;;;;;0.35;0.35;;;;;;;10.18;100.00;97390.22;6338892;22;20081;-49
2021/10/03 08:54:40;;;;;;;0.20;0.20;;;;;;;10.31;100.00;97381.88;6320190;22;20025;-49
2021/10/03 08:57:43;;;;;;;0.13;0.13;;;;;;;10.36;100.00;97383.84;6338412;22;20021;-49
2021/10/03 09:00:48;;;;;;;0.20;0.20;;;;;;;10.48;100.00;97379.53;6338739;22;20033;-49
2021/10/03 09:03:52;;;;;;;4.63;0.93;;;;;;;10.68;100.00;97377.41;6338922;22;20025;-48
2021/10/03 09:07:16;;;;;;;0.20;0.10;;;;;;;10.79;100.00;97379.97;6338742;22;20477;-49
2021/10/03 09:10:19;;;;;;;0.28;0.20;;;;;;;10.79;100.00;97389.06;6338461;22;20061;-49
2021/10/03 09:13:31;;;;;;;0.20;0.20;;;;;;;10.85;100.00;97395.25;6339202;22;20026;-49
2021/10/03 09:16:36;;;;;;;0.52;0.40;;;;;;;10.90;100.00;97402.00;6338503;22;20094;-49
2021/10/03 09:20:06;;;;;;;0.82;0.68;;;;;;;11.00;100.00;97391.94;6338910;22;20029;-49
2021/10/03 09:23:17;;;;;;;0.47;0.35;;;;;;;11.15;100.00;97408.84;6338548;22;20102;-48
2021/10/03 09:26:20;;;;;;;5.82;0.50;;;;;;;11.14;100.00;97398.97;6339016;22;20026;-49
2021/10/03 09:29:27;;;;;;;0.30;0.22;;;;;;;11.28;100.00;97398.41;6338666;22;20067;-48
2021/10/03 09:32:30;;;;;;;0.63;0.30;;;;;;;11.52;100.00;97400.16;6338647;22;20045;-48
2021/10/03 09:35:33;;;;;;;0.75;0.17;;;;;;;11.80;100.00;97414.22;6338175;22;20123;-48
2021/10/03 09:38:48;;;;;;;0.30;0.30;;;;;;;12.00;100.00;97433.00;6338603;22;20468;-48
2021/10/03 09:41:51;;;;;;;10.55;0.47;;;;;;;12.01;100.00;97417.03;6338612;22;20029;-48
2021/10/03 09:45:08;;;;;;;0.77;0.30;;;;;;;11.99;100.00;97419.63;6338961;22;20091;-48
2021/10/03 09:48:11;;;;;;;2.88;0.45;;;;;;;12.02;100.00;97430.41;6338757;22;20064;-48
2021/10/03 09:51:16;;;;;;;0.40;0.10;;;;;;;12.07;100.00;97426.00;6338605;22;20504;-48
2021/10/03 09:54:22;;;;;;;0.25;0.25;;;;;;;12.18;100.00;97431.31;6338912;22;20079;-48
2021/10/03 09:57:25;;;;;;;0.70;0.32;;;;;;;12.27;100.00;97428.03;6338481;22;20485;-48
2021/10/03 10:00:28;;;;;;;8.57;1.35;;;;;;;12.39;100.00;97428.53;6338321;22;20068;-48
2021/10/03 10:03:33;;;;;;;0.10;0.10;;;;;;;12.57;100.00;97430.31;6338613;22;20030;-48
2021/10/03 10:06:37;;;;;;;0.40;0.40;;;;;;;12.70;100.00;97438.59;6337902;22;20064;-48
2021/10/03 10:09:40;;;;;;;0.40;0.40;;;;;;;12.77;100.00;97435.09;6338375;22;20025;-48
2021/10/03 10:12:53;;;;;;;0.55;0.22;;;;;;;13.09;100.00;97432.72;6338270;22;20022;-48
2021/10/03 10:16:34;;;;;;;0.10;0.10;;;;;;;13.47;100.00;97433.59;6321012;22;20522;-49
2021/10/03 10:19:40;;;;;;;0.87;0.60;;;;;;;13.77;100.00;97438.56;6338412;22;20339;-47
2021/10/03 10:23:10;;;;;;;5.72;0.35;;;;;;;13.97;100.00;97445.31;6338456;22;20053;-47
2021/10/03 10:26:37;;;;;;;3.13;0.55;;;;;;;14.00;100.00;97436.56;6338538;22;20029;-48
2021/10/03 10:30:00;;;;;;;0.10;0.05;;;;;;;13.93;100.00;97442.13;6338143;22;20555;-48
2021/10/03 10:33:11;;;;;;;6.38;0.28;;;;;;;13.68;100.00;97439.84;6338606;22;20318;-48
2021/10/03 10:36:17;;;;;;;3.97;0.17;;;;;;;13.59;100.00;97457.16;6337890;22;20072;-47
2021/10/03 10:39:22;;;;;;;0.10;0.10;;;;;;;13.69;100.00;97449.72;6337939;22;20026;-47
2021/10/03 10:42:26;;;;;;;2.92;0.38;;;;;;;13.86;100.00;97456.88;6337905;22;20048;-47
2021/10/03 10:45:41;;;;;;;1.98;0.30;;;;;;;14.09;100.00;97463.25;6318969;22;20116;-47
2021/10/03 10:48:44;;;;;;;0.52;0.20;;;;;;;14.31;100.00;97468.16;6338192;22;20022;-47
2021/10/03 10:51:47;;;;;;;2.13;0.32;;;;;;;14.56;100.00;97466.28;6337891;22;20022;-47
2021/10/03 10:54:59;;;;;;;0.73;0.20;;;;;;;14.37;100.00;97474.31;6338416;22;20493;-47
2021/10/03 10:58:02;;;;;;;0.10;0.10;;;;;;;14.17;100.00;97473.13;6338305;22;20103;-47
2021/10/03 11:01:13;;;;;;;0.10;0.08;;;;;;;14.02;100.00;97497.56;6338028;22;20025;-47
2021/10/03 11:04:18;;;;;;;0.10;0.10;;;;;;;14.15;100.00;97497.38;6338113;22;20095;-47
2021/10/03 11:07:21;;;;;;;0.28;0.28;;;;;;;14.45;100.00;97494.66;6337837;22;20454;-47
2021/10/03 11:10:24;;;;;;;0.93;0.40;;;;;;;14.85;100.00;97484.41;6337867;22;20022;-47
2021/10/03 11:13:45;;;;;;;0.45;0.20;;;;;;;15.25;100.00;97483.75;6339790;22;20123;-47
2021/10/03 11:16:51;;;;;;;3.92;0.60;;;;;;;15.36;100.00;97480.53;6339753;22;20454;-47
2021/10/03 11:19:59;;;;;;;1.20;0.32;;;;;;;15.30;100.00;97488.41;6339810;22;20026;-47
2021/10/03 11:23:03;;;;;;;2.58;0.40;;;;;;;15.17;100.00;97484.53;6339183;22;20025;-47
2021/10/03 11:26:06;;;;;;;10.88;0.52;;;;;;;15.19;100.00;97495.91;6339666;22;20049;-47
2021/10/03 11:29:09;;;;;;;2.00;0.57;;;;;;;15.16;100.00;97505.44;6339769;22;20021;-47
2021/10/03 11:32:24;;;;;;;0.40;0.40;;;;;;;15.46;100.00;97503.91;6339949;22;20044;-46
2021/10/03 11:35:27;;;;;;;5.53;1.05;;;;;;;15.57;100.00;97503.50;6339521;22;20057;-47
2021/10/03 11:38:30;;;;;;;3.67;0.75;;;;;;;15.69;100.00;97510.19;6339834;22;20036;-46
2021/10/03 11:41:46;;;;;;;7.70;0.68;;;;;;;15.76;100.00;97512.22;6339286;22;20036;-47
2021/10/03 11:45:00;;;;;;;3.30;0.43;;;;;;;15.52;100.00;97513.63;6340002;22;20034;-48
2021/10/03 11:48:08;;;;;;;0.88;0.30;;;;;;;15.48;100.00;97518.88;6339216;22;20022;-48
2021/10/03 11:51:11;;;;;;;3.30;0.50;;;;;;;15.68;100.00;97519.94;6339448;22;20147;-48
2021/10/03 11:54:14;;;;;;;1.50;0.40;;;;;;;15.69;100.00;97529.84;6339905;22;20395;-47
2021/10/03 11:57:26;;;;;;;0.15;0.00;;;;;;;15.38;100.00;97539.59;6339584;22;20021;-47
2021/10/03 12:00:31;;;;;;;0.43;0.30;;;;;;;15.15;100.00;97553.69;6339375;22;20033;-47
2021/10/03 12:03:49;;;;;;;0.10;0.10;;;;;;;14.92;100.00;97566.97;6339589;22;20462;-48
2021/10/03 12:06:52;;;;;;;1.35;0.25;;;;;;;14.74;100.00;97571.63;6338971;22;20102;-49
2021/10/03 12:10:11;;;;;;;2.72;0.40;;;;;;;14.35;100.00;97572.88;6339459;22;20053;-49
2021/10/03 12:13:24;;;;;;;0.75;0.13;;;;;;;14.04;100.00;97567.69;6320194;22;20057;-49
2021/10/03 12:16:28;;;;;;;1.48;0.28;;;;;;;13.83;100.00;97550.28;6338944;22;20065;-49
2021/10/03 12:19:34;;;;;;;1.88;0.55;;;;;;;13.79;100.00;97581.44;6339169;22;20050;-48
2021/10/03 12:23:00;;;;;;;0.10;0.10;;;;;;;13.66;100.00;97585.06;6338832;22;20029;-49
2021/10/03 12:26:28;;;;;;;0.50;0.50;;;;;;;13.95;100.00;97582.22;6320312;22;20394;-50
2021/10/03 12:29:31;;;;;;;0.10;0.10;;;;;;;14.25;100.00;97587.94;6304515;22;20079;-49
2021/10/03 12:32:35;;;;;;;2.55;0.65;;;;;;;14.11;100.00;97583.78;6339304;22;20063;-49
2021/10/03 12:35:40;;;;;;;6.13;0.35;;;;;;;14.27;100.00;97579.75;6338858;22;20339;-49
2021/10/03 12:38:43;;;;;;;1.98;0.30;;;;;;;14.61;100.00;97591.41;6338896;22;20111;-49
2021/10/03 12:41:48;;;;;;;2.25;0.57;;;;;;;15.07;100.00;97587.31;6339205;22;20029;-49
2021/10/03 12:44:54;;;;;;;2.13;0.65;;;;;;;15.37;100.00;97588.63;6339186;22;20053;-49
2021/10/03 12:47:58;;;;;;;0.50;0.20;;;;;;;15.40;100.00;97590.31;6339008;22;20080;-49
2021/10/03 12:51:01;;;;;;;2.20;0.80;;;;;;;14.98;100.00;97590.69;6338804;22;20041;-49
2021/10/03 12:54:04;;;;;;;1.20;0.20;;;;;;;14.57;100.00;97610.66;6338745;22;20047;-50
2021/10/03 12:57:07;;;;;;;1.85;0.20;;;;;;;14.32;100.00;97615.22;6338838;22;20393;-49
2021/10/03 13:00:11;;;;;;;5.20;0.98;;;;;;;14.33;100.00;97625.13;6339123;22;20025;-49
2021/10/03 13:03:13;;;;;;;0.63;0.47;;;;;;;14.27;100.00;97630.13;6338646;22;20507;-48
2021/10/03 13:06:17;;;;;;;0.22;0.22;;;;;;;14.16;100.00;97633.25;6338452;22;20095;-49
2021/10/03 13:09:20;;;;;;;0.10;0.00;;;;;;;14.03;100.00;97636.19;6338963;22;20017;-49
2021/10/03 13:12:23;;;;;;;0.20;0.20;;;;;;;14.01;100.00;97636.72;6338884;22;20401;-49
2021/10/03 13:15:26;;;;;;;0.80;0.20;;;;;;;14.11;100.00;97637.72;6338313;22;20025;-49
2021/10/03 13:18:29;;;;;;;0.10;0.10;;;;;;;14.30;100.00;97634.63;6338724;22;20026;-49
2021/10/03 13:21:32;;;;;;;3.25;0.60;;;;;;;14.45;100.00;97640.28;6338681;22;20343;-48
2021/10/03 13:24:35;;;;;;;5.20;1.17;;;;;;;14.69;100.00;97636.22;6338873;22;20061;-48
2021/10/03 13:27:38;;;;;;;2.95;0.45;;;;;;;14.74;100.00;97646.53;6338331;22;20021;-48
2021/10/03 13:30:41;;;;;;;0.43;0.15;;;;;;;14.86;100.00;97640.00;6338911;22;20396;-48
2021/10/03 13:33:44;;;;;;;0.93;0.20;;;;;;;14.98;100.00;97641.16;6338760;22;20025;-48
2021/10/03 13:36:47;;;;;;;3.65;0.65;;;;;;;14.72;100.00;97663.16;6338479;22;20025;-48
2021/10/03 13:39:50;;;;;;;1.35;0.20;;;;;;;14.55;100.00;97660.88;6338127;22;20034;-48
2021/10/03 13:42:52;;;;;;;0.63;0.10;;;;;;;14.28;100.00;97665.22;6338454;22;20057;-47
2021/10/03 13:45:56;;;;;;;5.95;0.30;;;;;;;14.00;100.00;97682.81;6338448;22;20068;-47
2021/10/03 13:48:59;;;;;;;1.42;0.40;;;;;;;13.78;100.00;97685.47;6338690;22;20455;-47
2021/10/03 13:52:02;;;;;;;3.42;0.60;;;;;;;13.76;100.00;97691.63;6337982;22;20067;-47
2021/10/03 13:55:07;;;;;;;1.80;0.38;;;;;;;13.89;100.00;97701.94;6338724;22;20477;-47
2021/10/03 13:58:10;;;;;;;0.10;0.10;;;;;;;14.12;100.00;97700.06;6337791;22;20098;-47
2021/10/03 14:01:13;;;;;;;1.55;0.32;;;;;;;14.31;100.00;97708.94;6338210;22;20034;-47
2021/10/03 14:04:17;;;;;;;0.73;0.30;;;;;;;14.29;100.00;97708.75;6337906;22;20057;-47
2021/10/03 14:07:21;;;;;;;5.32;0.35;;;;;;;14.14;100.00;97717.03;6337833;22;20030;-46
2021/10/03 14:10:23;;;;;;;5.78;0.22;;;;;;;14.13;100.00;97723.94;6338003;22;20099;-46
2021/10/03 14:13:26;;;;;;;0.35;0.32;;;;;;;14.12;100.00;97725.25;6338391;22;20450;-46
2021/10/03 14:16:29;;;;;;;0.10;0.10;;;;;;;14.24;100.00;97732.03;6337670;22;20025;-47
2021/10/03 14:19:32;;;;;;;2.17;0.40;;;;;;;14.33;100.00;97735.09;6338317;22;20113;-46
2021/10/03 14:22:35;;;;;;;0.52;0.28;;;;;;;14.47;100.00;97737.78;6338450;22;20025;-46
2021/10/03 14:25:41;;;;;;;2.28;0.20;;;;;;;14.41;100.00;97740.72;6338525;22;20025;-46